sensor_id;sensor_type;location;lat;lon;timestamp;P1;durP1;ratioP1;P2;durP2;ratioP2
20095;SDS011;10207;50.942;6.900;2023-11-19T00:01:11;0.90;;;0.82;;
20095;SDS011;10207;50.942;6.900;2023-11-19T00:03:37;1.23;;;0.50;;
20095;SDS011;10207;50.942;6.900;2023-11-19T00:06:02;0.73;;;0.60;;
20095;SDS011;10207;50.942;6.900;2023-11-19T00:08:30;1.35;;;0.55;;
20095;SDS011;10207;50.942;6.900;2023-11-19T00:10:55;1.00;;;0.63;;
20095;SDS011;10207;50.942;6.900;2023-11-19T00:13:21;0.95;;;0.60;;
20095;SDS011;10207;50.942;6.900;2023-11-19T00:15:48;1.50;;;0.93;;
20095;SDS011;10207;50.942;6.900;2023-11-19T00:18:14;0.88;;;0.57;;
20095;SDS011;10207;50.942;6.900;2023-11-19T00:20:40;2.33;;;0.60;;
20095;SDS011;10207;50.942;6.900;2023-11-19T00:23:07;0.57;;;0.50;;
20095;SDS011;10207;50.942;6.900;2023-11-19T00:25:33;0.95;;;0.60;;
20095;SDS011;10207;50.942;6.900;2023-11-19T00:27:59;1.83;;;0.70;;
20095;SDS011;10207;50.942;6.900;2023-11-19T00:30:25;0.40;;;0.40;;
20095;SDS011;10207;50.942;6.900;2023-11-19T00:32:51;1.17;;;0.70;;
20095;SDS011;10207;50.942;6.900;2023-11-19T00:35:16;1.50;;;0.55;;
20095;SDS011;10207;50.942;6.900;2023-11-19T00:37:43;1.15;;;0.52;;
20095;SDS011;10207;50.942;6.900;2023-11-19T00:40:09;2.28;;;0.82;;
20095;SDS011;10207;50.942;6.900;2023-11-19T00:42:36;0.90;;;0.47;;
20095;SDS011;10207;50.942;6.900;2023-11-19T00:45:02;0.93;;;0.73;;
20095;SDS011;10207;50.942;6.900;2023-11-19T00:47:28;0.82;;;0.60;;
20095;SDS011;10207;50.942;6.900;2023-11-19T00:49:53;1.42;;;0.70;;
20095;SDS011;10207;50.942;6.900;2023-11-19T00:52:19;1.17;;;0.70;;
20095;SDS011;10207;50.942;6.900;2023-11-19T00:54:45;1.40;;;1.00;;
20095;SDS011;10207;50.942;6.900;2023-11-19T00:57:11;1.27;;;0.90;;
20095;SDS011;10207;50.942;6.900;2023-11-19T00:59:37;1.13;;;0.82;;
20095;SDS011;10207;50.942;6.900;2023-11-19T01:02:03;3.40;;;0.93;;
20095;SDS011;10207;50.942;6.900;2023-11-19T01:04:34;1.10;;;0.93;;
20095;SDS011;10207;50.942;6.900;2023-11-19T01:07:01;2.10;;;0.90;;
20095;SDS011;10207;50.942;6.900;2023-11-19T01:09:27;2.42;;;1.02;;
20095;SDS011;10207;50.942;6.900;2023-11-19T01:11:53;1.83;;;0.80;;
20095;SDS011;10207;50.942;6.900;2023-11-19T01:14:19;5.25;;;1.42;;
20095;SDS011;10207;50.942;6.900;2023-11-19T01:16:46;2.63;;;1.27;;
20095;SDS011;10207;50.942;6.900;2023-11-19T01:19:12;2.40;;;0.85;;
20095;SDS011;10207;50.942;6.900;2023-11-19T01:21:38;1.73;;;0.63;;
20095;SDS011;10207;50.942;6.900;2023-11-19T01:24:03;2.83;;;1.33;;
20095;SDS011;10207;50.942;6.900;2023-11-19T01:26:32;2.55;;;1.00;;
20095;SDS011;10207;50.942;6.900;2023-11-19T01:28:57;4.07;;;0.88;;
20095;SDS011;10207;50.942;6.900;2023-11-19T01:31:23;6.00;;;1.63;;
20095;SDS011;10207;50.942;6.900;2023-11-19T01:33:49;3.53;;;1.10;;
20095;SDS011;10207;50.942;6.900;2023-11-19T01:36:15;3.05;;;0.82;;
20095;SDS011;10207;50.942;6.900;2023-11-19T01:38:41;2.42;;;1.05;;
20095;SDS011;10207;50.942;6.900;2023-11-19T01:41:07;2.67;;;1.17;;
20095;SDS011;10207;50.942;6.900;2023-11-19T01:43:33;1.98;;;1.08;;
20095;SDS011;10207;50.942;6.900;2023-11-19T01:46:00;3.92;;;1.23;;
20095;SDS011;10207;50.942;6.900;2023-11-19T01:48:26;5.45;;;1.20;;
20095;SDS011;10207;50.942;6.900;2023-11-19T01:50:52;3.83;;;1.58;;
20095;SDS011;10207;50.942;6.900;2023-11-19T01:53:18;4.50;;;2.03;;
20095;SDS011;10207;50.942;6.900;2023-11-19T01:55:46;4.53;;;1.35;;
20095;SDS011;10207;50.942;6.900;2023-11-19T01:58:13;4.25;;;1.40;;
20095;SDS011;10207;50.942;6.900;2023-11-19T02:00:39;4.72;;;1.70;;
20095;SDS011;10207;50.942;6.900;2023-11-19T02:03:07;4.15;;;1.48;;
20095;SDS011;10207;50.942;6.900;2023-11-19T02:05:34;4.20;;;1.88;;
20095;SDS011;10207;50.942;6.900;2023-11-19T02:08:01;6.63;;;1.70;;
20095;SDS011;10207;50.942;6.900;2023-11-19T02:10:27;8.88;;;1.70;;
20095;SDS011;10207;50.942;6.900;2023-11-19T02:12:53;7.18;;;1.65;;
20095;SDS011;10207;50.942;6.900;2023-11-19T02:15:21;8.95;;;2.08;;
20095;SDS011;10207;50.942;6.900;2023-11-19T02:17:53;8.65;;;1.83;;
20095;SDS011;10207;50.942;6.900;2023-11-19T02:20:19;6.82;;;1.70;;
20095;SDS011;10207;50.942;6.900;2023-11-19T02:22:46;2.85;;;1.50;;
20095;SDS011;10207;50.942;6.900;2023-11-19T02:25:17;5.32;;;1.98;;
20095;SDS011;10207;50.942;6.900;2023-11-19T02:27:58;4.45;;;1.60;;
20095;SDS011;10207;50.942;6.900;2023-11-19T02:30:25;8.25;;;1.60;;
20095;SDS011;10207;50.942;6.900;2023-11-19T02:32:57;4.68;;;1.40;;
20095;SDS011;10207;50.942;6.900;2023-11-19T02:35:24;8.27;;;2.80;;
20095;SDS011;10207;50.942;6.900;2023-11-19T02:37:51;6.25;;;1.98;;
20095;SDS011;10207;50.942;6.900;2023-11-19T02:40:17;5.32;;;1.95;;
20095;SDS011;10207;50.942;6.900;2023-11-19T02:42:44;9.85;;;2.03;;
20095;SDS011;10207;50.942;6.900;2023-11-19T02:45:10;10.95;;;2.00;;
20095;SDS011;10207;50.942;6.900;2023-11-19T02:47:40;7.03;;;1.55;;
20095;SDS011;10207;50.942;6.900;2023-11-19T02:50:10;10.82;;;2.15;;
20095;SDS011;10207;50.942;6.900;2023-11-19T02:52:43;8.57;;;1.80;;
20095;SDS011;10207;50.942;6.900;2023-11-19T02:55:10;4.85;;;1.85;;
20095;SDS011;10207;50.942;6.900;2023-11-19T02:57:38;9.07;;;2.85;;
20095;SDS011;10207;50.942;6.900;2023-11-19T03:00:18;9.27;;;1.88;;
20095;SDS011;10207;50.942;6.900;2023-11-19T03:02:44;9.23;;;2.72;;
20095;SDS011;10207;50.942;6.900;2023-11-19T03:05:12;9.23;;;2.33;;
20095;SDS011;10207;50.942;6.900;2023-11-19T03:07:41;10.23;;;2.45;;
20095;SDS011;10207;50.942;6.900;2023-11-19T03:10:08;13.93;;;2.55;;
20095;SDS011;10207;50.942;6.900;2023-11-19T03:12:34;18.67;;;2.88;;
20095;SDS011;10207;50.942;6.900;2023-11-19T03:15:01;18.48;;;3.50;;
20095;SDS011;10207;50.942;6.900;2023-11-19T03:17:27;8.25;;;2.45;;
20095;SDS011;10207;50.942;6.900;2023-11-19T03:19:53;14.75;;;2.72;;
20095;SDS011;10207;50.942;6.900;2023-11-19T03:22:18;14.35;;;2.85;;
20095;SDS011;10207;50.942;6.900;2023-11-19T03:24:44;12.77;;;2.78;;
20095;SDS011;10207;50.942;6.900;2023-11-19T03:27:10;10.07;;;2.97;;
20095;SDS011;10207;50.942;6.900;2023-11-19T03:29:36;18.17;;;3.50;;
20095;SDS011;10207;50.942;6.900;2023-11-19T03:32:04;13.23;;;3.92;;
20095;SDS011;10207;50.942;6.900;2023-11-19T03:34:30;12.65;;;2.88;;
20095;SDS011;10207;50.942;6.900;2023-11-19T03:36:56;12.60;;;3.05;;
20095;SDS011;10207;50.942;6.900;2023-11-19T03:39:22;9.85;;;2.35;;
20095;SDS011;10207;50.942;6.900;2023-11-19T03:41:50;10.93;;;3.00;;
20095;SDS011;10207;50.942;6.900;2023-11-19T03:44:16;10.95;;;2.40;;
20095;SDS011;10207;50.942;6.900;2023-11-19T03:46:42;13.38;;;3.05;;
20095;SDS011;10207;50.942;6.900;2023-11-19T03:49:08;12.63;;;2.70;;
20095;SDS011;10207;50.942;6.900;2023-11-19T03:51:38;9.55;;;2.80;;
20095;SDS011;10207;50.942;6.900;2023-11-19T03:54:04;13.63;;;2.40;;
20095;SDS011;10207;50.942;6.900;2023-11-19T03:56:30;12.35;;;3.72;;
20095;SDS011;10207;50.942;6.900;2023-11-19T03:58:57;11.13;;;2.67;;
20095;SDS011;10207;50.942;6.900;2023-11-19T04:01:23;12.18;;;2.78;;
20095;SDS011;10207;50.942;6.900;2023-11-19T04:03:49;9.10;;;3.92;;
20095;SDS011;10207;50.942;6.900;2023-11-19T04:06:14;15.23;;;3.05;;
20095;SDS011;10207;50.942;6.900;2023-11-19T04:08:41;8.07;;;2.15;;
20095;SDS011;10207;50.942;6.900;2023-11-19T04:11:07;14.23;;;2.28;;
20095;SDS011;10207;50.942;6.900;2023-11-19T04:13:34;10.07;;;1.73;;
20095;SDS011;10207;50.942;6.900;2023-11-19T04:16:00;15.13;;;2.45;;
20095;SDS011;10207;50.942;6.900;2023-11-19T04:18:26;14.45;;;2.90;;
20095;SDS011;10207;50.942;6.900;2023-11-19T04:20:52;13.18;;;3.20;;
20095;SDS011;10207;50.942;6.900;2023-11-19T04:23:18;8.40;;;2.10;;
20095;SDS011;10207;50.942;6.900;2023-11-19T04:25:44;10.48;;;1.85;;
20095;SDS011;10207;50.942;6.900;2023-11-19T04:28:10;8.48;;;1.92;;
20095;SDS011;10207;50.942;6.900;2023-11-19T04:30:36;9.18;;;2.42;;
20095;SDS011;10207;50.942;6.900;2023-11-19T04:33:03;12.40;;;2.40;;
20095;SDS011;10207;50.942;6.900;2023-11-19T04:35:29;10.10;;;2.15;;
20095;SDS011;10207;50.942;6.900;2023-11-19T04:37:55;13.77;;;2.50;;
20095;SDS011;10207;50.942;6.900;2023-11-19T04:40:23;12.05;;;2.15;;
20095;SDS011;10207;50.942;6.900;2023-11-19T04:42:49;13.80;;;2.85;;
20095;SDS011;10207;50.942;6.900;2023-11-19T04:45:14;13.60;;;3.17;;
20095;SDS011;10207;50.942;6.900;2023-11-19T04:47:44;14.52;;;3.40;;
20095;SDS011;10207;50.942;6.900;2023-11-19T04:50:10;18.42;;;4.38;;
20095;SDS011;10207;50.942;6.900;2023-11-19T04:52:39;11.35;;;2.13;;
20095;SDS011;10207;50.942;6.900;2023-11-19T04:55:10;12.90;;;2.33;;
20095;SDS011;10207;50.942;6.900;2023-11-19T04:57:38;13.25;;;2.35;;
20095;SDS011;10207;50.942;6.900;2023-11-19T05:00:04;15.10;;;2.35;;
20095;SDS011;10207;50.942;6.900;2023-11-19T05:02:30;17.30;;;3.00;;
20095;SDS011;10207;50.942;6.900;2023-11-19T05:04:56;13.55;;;2.58;;
20095;SDS011;10207;50.942;6.900;2023-11-19T05:07:22;17.80;;;3.53;;
20095;SDS011;10207;50.942;6.900;2023-11-19T05:09:48;14.65;;;2.58;;
20095;SDS011;10207;50.942;6.900;2023-11-19T05:12:14;10.75;;;2.17;;
20095;SDS011;10207;50.942;6.900;2023-11-19T05:14:40;17.50;;;4.13;;
20095;SDS011;10207;50.942;6.900;2023-11-19T05:17:05;13.27;;;2.45;;
20095;SDS011;10207;50.942;6.900;2023-11-19T05:19:33;12.32;;;2.58;;
20095;SDS011;10207;50.942;6.900;2023-11-19T05:21:59;14.07;;;3.53;;
20095;SDS011;10207;50.942;6.900;2023-11-19T05:24:25;17.88;;;2.78;;
20095;SDS011;10207;50.942;6.900;2023-11-19T05:26:51;14.40;;;2.40;;
20095;SDS011;10207;50.942;6.900;2023-11-19T05:29:17;11.07;;;3.17;;
20095;SDS011;10207;50.942;6.900;2023-11-19T05:31:43;17.20;;;2.53;;
20095;SDS011;10207;50.942;6.900;2023-11-19T05:34:08;15.88;;;2.58;;
20095;SDS011;10207;50.942;6.900;2023-11-19T05:36:34;19.83;;;3.38;;
20095;SDS011;10207;50.942;6.900;2023-11-19T05:39:00;9.23;;;2.10;;
20095;SDS011;10207;50.942;6.900;2023-11-19T05:41:26;18.50;;;3.45;;
20095;SDS011;10207;50.942;6.900;2023-11-19T05:43:52;10.05;;;2.35;;
20095;SDS011;10207;50.942;6.900;2023-11-19T05:46:18;13.10;;;3.08;;
20095;SDS011;10207;50.942;6.900;2023-11-19T05:48:44;15.48;;;2.25;;
20095;SDS011;10207;50.942;6.900;2023-11-19T05:51:12;14.88;;;3.45;;
20095;SDS011;10207;50.942;6.900;2023-11-19T05:53:38;18.05;;;2.90;;
20095;SDS011;10207;50.942;6.900;2023-11-19T05:56:04;17.40;;;2.95;;
20095;SDS011;10207;50.942;6.900;2023-11-19T05:58:30;24.98;;;3.72;;
20095;SDS011;10207;50.942;6.900;2023-11-19T06:00:58;17.10;;;3.08;;
20095;SDS011;10207;50.942;6.900;2023-11-19T06:03:26;13.73;;;2.38;;
20095;SDS011;10207;50.942;6.900;2023-11-19T06:05:52;17.42;;;3.67;;
20095;SDS011;10207;50.942;6.900;2023-11-19T06:08:20;14.95;;;2.70;;
20095;SDS011;10207;50.942;6.900;2023-11-19T06:10:46;13.27;;;2.33;;
20095;SDS011;10207;50.942;6.900;2023-11-19T06:13:12;16.27;;;3.30;;
20095;SDS011;10207;50.942;6.900;2023-11-19T06:15:43;22.77;;;4.45;;
20095;SDS011;10207;50.942;6.900;2023-11-19T06:18:09;14.30;;;2.60;;
20095;SDS011;10207;50.942;6.900;2023-11-19T06:20:37;17.42;;;3.03;;
20095;SDS011;10207;50.942;6.900;2023-11-19T06:23:02;17.75;;;3.75;;
20095;SDS011;10207;50.942;6.900;2023-11-19T06:25:28;19.98;;;4.68;;
20095;SDS011;10207;50.942;6.900;2023-11-19T06:27:54;16.23;;;4.35;;
20095;SDS011;10207;50.942;6.900;2023-11-19T06:30:20;15.15;;;3.70;;
20095;SDS011;10207;50.942;6.900;2023-11-19T06:32:46;16.00;;;3.75;;
20095;SDS011;10207;50.942;6.900;2023-11-19T06:35:12;17.80;;;3.22;;
20095;SDS011;10207;50.942;6.900;2023-11-19T06:37:39;16.55;;;2.78;;
20095;SDS011;10207;50.942;6.900;2023-11-19T06:40:05;23.35;;;5.43;;
20095;SDS011;10207;50.942;6.900;2023-11-19T06:42:32;20.40;;;3.10;;
20095;SDS011;10207;50.942;6.900;2023-11-19T06:44:58;13.68;;;2.58;;
20095;SDS011;10207;50.942;6.900;2023-11-19T06:47:27;15.93;;;3.20;;
20095;SDS011;10207;50.942;6.900;2023-11-19T06:49:54;15.32;;;3.30;;
20095;SDS011;10207;50.942;6.900;2023-11-19T06:52:20;16.48;;;3.92;;
20095;SDS011;10207;50.942;6.900;2023-11-19T06:54:46;15.75;;;2.30;;
20095;SDS011;10207;50.942;6.900;2023-11-19T06:57:12;17.50;;;3.70;;
20095;SDS011;10207;50.942;6.900;2023-11-19T06:59:38;16.20;;;3.22;;
20095;SDS011;10207;50.942;6.900;2023-11-19T07:02:04;16.35;;;2.88;;
20095;SDS011;10207;50.942;6.900;2023-11-19T07:04:30;13.63;;;3.45;;
20095;SDS011;10207;50.942;6.900;2023-11-19T07:06:56;19.45;;;2.92;;
20095;SDS011;10207;50.942;6.900;2023-11-19T07:09:22;16.50;;;3.72;;
20095;SDS011;10207;50.942;6.900;2023-11-19T07:11:48;22.70;;;3.80;;
20095;SDS011;10207;50.942;6.900;2023-11-19T07:14:16;17.73;;;3.40;;
20095;SDS011;10207;50.942;6.900;2023-11-19T07:16:42;18.27;;;3.50;;
20095;SDS011;10207;50.942;6.900;2023-11-19T07:19:08;17.10;;;2.95;;
20095;SDS011;10207;50.942;6.900;2023-11-19T07:21:34;17.05;;;2.85;;
20095;SDS011;10207;50.942;6.900;2023-11-19T07:24:01;14.45;;;3.85;;
20095;SDS011;10207;50.942;6.900;2023-11-19T07:26:27;22.58;;;3.03;;
20095;SDS011;10207;50.942;6.900;2023-11-19T07:28:53;16.88;;;3.15;;
20095;SDS011;10207;50.942;6.900;2023-11-19T07:31:21;15.80;;;3.08;;
20095;SDS011;10207;50.942;6.900;2023-11-19T07:33:47;13.73;;;2.60;;
20095;SDS011;10207;50.942;6.900;2023-11-19T07:36:16;13.65;;;2.40;;
20095;SDS011;10207;50.942;6.900;2023-11-19T07:38:42;12.75;;;2.90;;
20095;SDS011;10207;50.942;6.900;2023-11-19T07:41:08;17.02;;;2.65;;
20095;SDS011;10207;50.942;6.900;2023-11-19T07:43:43;16.27;;;3.22;;
20095;SDS011;10207;50.942;6.900;2023-11-19T07:46:13;12.57;;;2.75;;
20095;SDS011;10207;50.942;6.900;2023-11-19T07:48:39;17.80;;;4.43;;
20095;SDS011;10207;50.942;6.900;2023-11-19T07:51:05;14.70;;;2.70;;
20095;SDS011;10207;50.942;6.900;2023-11-19T07:53:31;13.98;;;2.88;;
20095;SDS011;10207;50.942;6.900;2023-11-19T07:55:58;19.05;;;4.00;;
20095;SDS011;10207;50.942;6.900;2023-11-19T07:58:27;17.35;;;3.08;;
20095;SDS011;10207;50.942;6.900;2023-11-19T08:00:53;15.93;;;3.58;;
20095;SDS011;10207;50.942;6.900;2023-11-19T08:03:19;15.90;;;3.17;;
20095;SDS011;10207;50.942;6.900;2023-11-19T08:05:45;22.38;;;3.45;;
20095;SDS011;10207;50.942;6.900;2023-11-19T08:08:12;19.88;;;4.50;;
20095;SDS011;10207;50.942;6.900;2023-11-19T08:10:37;15.15;;;3.42;;
20095;SDS011;10207;50.942;6.900;2023-11-19T08:13:04;18.35;;;3.50;;
20095;SDS011;10207;50.942;6.900;2023-11-19T08:15:30;13.43;;;4.47;;
20095;SDS011;10207;50.942;6.900;2023-11-19T08:17:56;21.33;;;4.60;;
20095;SDS011;10207;50.942;6.900;2023-11-19T08:20:22;16.35;;;3.20;;
20095;SDS011;10207;50.942;6.900;2023-11-19T08:22:48;17.42;;;3.42;;
20095;SDS011;10207;50.942;6.900;2023-11-19T08:25:14;15.45;;;3.88;;
20095;SDS011;10207;50.942;6.900;2023-11-19T08:27:39;12.95;;;2.70;;
20095;SDS011;10207;50.942;6.900;2023-11-19T08:30:05;17.52;;;3.97;;
20095;SDS011;10207;50.942;6.900;2023-11-19T08:32:32;13.57;;;2.83;;
20095;SDS011;10207;50.942;6.900;2023-11-19T08:34:58;16.25;;;3.17;;
20095;SDS011;10207;50.942;6.900;2023-11-19T08:37:24;15.10;;;3.53;;
20095;SDS011;10207;50.942;6.900;2023-11-19T08:39:50;13.57;;;2.78;;
20095;SDS011;10207;50.942;6.900;2023-11-19T08:42:16;13.18;;;3.03;;
20095;SDS011;10207;50.942;6.900;2023-11-19T08:44:43;16.88;;;3.70;;
20095;SDS011;10207;50.942;6.900;2023-11-19T08:47:13;14.25;;;3.45;;
20095;SDS011;10207;50.942;6.900;2023-11-19T08:49:39;17.13;;;4.00;;
20095;SDS011;10207;50.942;6.900;2023-11-19T08:52:05;19.15;;;3.80;;
20095;SDS011;10207;50.942;6.900;2023-11-19T08:54:33;22.30;;;4.57;;
20095;SDS011;10207;50.942;6.900;2023-11-19T08:56:59;20.13;;;4.95;;
20095;SDS011;10207;50.942;6.900;2023-11-19T08:59:28;19.38;;;3.88;;
20095;SDS011;10207;50.942;6.900;2023-11-19T09:01:54;20.52;;;4.22;;
20095;SDS011;10207;50.942;6.900;2023-11-19T09:04:20;11.85;;;2.60;;
20095;SDS011;10207;50.942;6.900;2023-11-19T09:06:48;16.33;;;3.33;;
20095;SDS011;10207;50.942;6.900;2023-11-19T09:09:14;16.08;;;3.45;;
20095;SDS011;10207;50.942;6.900;2023-11-19T09:11:40;15.20;;;3.08;;
20095;SDS011;10207;50.942;6.900;2023-11-19T09:14:06;18.33;;;4.25;;
20095;SDS011;10207;50.942;6.900;2023-11-19T09:16:32;15.50;;;3.75;;
20095;SDS011;10207;50.942;6.900;2023-11-19T09:18:58;14.93;;;3.20;;
20095;SDS011;10207;50.942;6.900;2023-11-19T09:21:25;21.10;;;4.25;;
20095;SDS011;10207;50.942;6.900;2023-11-19T09:23:51;14.43;;;3.05;;
20095;SDS011;10207;50.942;6.900;2023-11-19T09:26:17;18.58;;;3.80;;
20095;SDS011;10207;50.942;6.900;2023-11-19T09:28:42;16.67;;;3.40;;
20095;SDS011;10207;50.942;6.900;2023-11-19T09:31:15;15.95;;;3.45;;
20095;SDS011;10207;50.942;6.900;2023-11-19T09:33:41;24.48;;;4.82;;
20095;SDS011;10207;50.942;6.900;2023-11-19T09:36:06;17.65;;;3.80;;
20095;SDS011;10207;50.942;6.900;2023-11-19T09:38:32;15.85;;;3.60;;
20095;SDS011;10207;50.942;6.900;2023-11-19T09:40:58;19.27;;;3.63;;
20095;SDS011;10207;50.942;6.900;2023-11-19T09:43:26;16.90;;;4.00;;
20095;SDS011;10207;50.942;6.900;2023-11-19T09:45:53;17.98;;;4.18;;
20095;SDS011;10207;50.942;6.900;2023-11-19T09:48:20;16.60;;;3.75;;
20095;SDS011;10207;50.942;6.900;2023-11-19T09:50:47;15.32;;;3.17;;
20095;SDS011;10207;50.942;6.900;2023-11-19T09:53:16;19.48;;;4.85;;
20095;SDS011;10207;50.942;6.900;2023-11-19T09:55:42;20.23;;;3.33;;
20095;SDS011;10207;50.942;6.900;2023-11-19T09:58:08;21.52;;;4.32;;
20095;SDS011;10207;50.942;6.900;2023-11-19T10:00:35;18.15;;;3.20;;
20095;SDS011;10207;50.942;6.900;2023-11-19T10:03:01;20.63;;;3.50;;
20095;SDS011;10207;50.942;6.900;2023-11-19T10:05:27;16.08;;;3.20;;
20095;SDS011;10207;50.942;6.900;2023-11-19T10:07:53;18.02;;;3.42;;
20095;SDS011;10207;50.942;6.900;2023-11-19T10:10:21;21.42;;;3.40;;
20095;SDS011;10207;50.942;6.900;2023-11-19T10:12:47;18.63;;;3.33;;
20095;SDS011;10207;50.942;6.900;2023-11-19T10:15:22;17.85;;;4.10;;
20095;SDS011;10207;50.942;6.900;2023-11-19T10:17:50;22.65;;;4.85;;
20095;SDS011;10207;50.942;6.900;2023-11-19T10:20:16;18.83;;;3.97;;
20095;SDS011;10207;50.942;6.900;2023-11-19T10:22:42;17.60;;;4.13;;
20095;SDS011;10207;50.942;6.900;2023-11-19T10:27:49;19.73;;;3.60;;
20095;SDS011;10207;50.942;6.900;2023-11-19T10:30:22;17.90;;;3.47;;
20095;SDS011;10207;50.942;6.900;2023-11-19T10:33:07;18.00;;;4.10;;
20095;SDS011;10207;50.942;6.900;2023-11-19T10:35:34;22.10;;;4.70;;
20095;SDS011;10207;50.942;6.900;2023-11-19T10:38:00;15.32;;;3.83;;
20095;SDS011;10207;50.942;6.900;2023-11-19T10:40:39;12.95;;;3.15;;
20095;SDS011;10207;50.942;6.900;2023-11-19T10:43:06;20.15;;;4.13;;
20095;SDS011;10207;50.942;6.900;2023-11-19T10:45:33;16.33;;;3.25;;
20095;SDS011;10207;50.942;6.900;2023-11-19T10:47:59;12.20;;;2.60;;
20095;SDS011;10207;50.942;6.900;2023-11-19T10:50:28;17.65;;;3.28;;
20095;SDS011;10207;50.942;6.900;2023-11-19T10:52:56;15.05;;;2.97;;
20095;SDS011;10207;50.942;6.900;2023-11-19T10:55:26;15.70;;;3.78;;
20095;SDS011;10207;50.942;6.900;2023-11-19T10:57:53;13.88;;;2.72;;
20095;SDS011;10207;50.942;6.900;2023-11-19T11:00:22;19.85;;;3.47;;
20095;SDS011;10207;50.942;6.900;2023-11-19T11:02:50;15.38;;;3.10;;
20095;SDS011;10207;50.942;6.900;2023-11-19T11:05:16;13.90;;;3.28;;
20095;SDS011;10207;50.942;6.900;2023-11-19T11:07:44;15.40;;;3.55;;
20095;SDS011;10207;50.942;6.900;2023-11-19T11:10:10;15.02;;;3.45;;
20095;SDS011;10207;50.942;6.900;2023-11-19T11:12:37;13.15;;;3.03;;
20095;SDS011;10207;50.942;6.900;2023-11-19T11:15:07;17.02;;;3.13;;
20095;SDS011;10207;50.942;6.900;2023-11-19T11:17:33;19.88;;;3.33;;
20095;SDS011;10207;50.942;6.900;2023-11-19T11:19:59;24.42;;;4.03;;
20095;SDS011;10207;50.942;6.900;2023-11-19T11:22:25;14.90;;;2.70;;
20095;SDS011;10207;50.942;6.900;2023-11-19T11:37:37;14.60;;;2.80;;
20095;SDS011;10207;50.942;6.900;2023-11-19T11:40:05;17.50;;;3.05;;
20095;SDS011;10207;50.942;6.900;2023-11-19T11:42:38;15.23;;;3.08;;
20095;SDS011;10207;50.942;6.900;2023-11-19T11:45:46;21.52;;;3.25;;
20095;SDS011;10207;50.942;6.900;2023-11-19T11:50:19;18.27;;;2.75;;
20095;SDS011;10207;50.942;6.900;2023-11-19T11:55:35;12.98;;;2.40;;
20095;SDS011;10207;50.942;6.900;2023-11-19T11:58:07;15.65;;;3.08;;
20095;SDS011;10207;50.942;6.900;2023-11-19T12:00:38;14.48;;;2.88;;
20095;SDS011;10207;50.942;6.900;2023-11-19T12:03:06;11.35;;;3.35;;
20095;SDS011;10207;50.942;6.900;2023-11-19T12:05:33;9.02;;;2.13;;
20095;SDS011;10207;50.942;6.900;2023-11-19T12:08:03;14.68;;;2.47;;
20095;SDS011;10207;50.942;6.900;2023-11-19T12:10:30;12.05;;;2.25;;
20095;SDS011;10207;50.942;6.900;2023-11-19T12:12:59;10.68;;;2.58;;
20095;SDS011;10207;50.942;6.900;2023-11-19T12:15:26;13.98;;;2.45;;
20095;SDS011;10207;50.942;6.900;2023-11-19T12:17:53;11.55;;;2.78;;
20095;SDS011;10207;50.942;6.900;2023-11-19T12:20:21;18.80;;;2.58;;
20095;SDS011;10207;50.942;6.900;2023-11-19T12:22:47;11.25;;;2.42;;
20095;SDS011;10207;50.942;6.900;2023-11-19T12:25:15;12.40;;;2.53;;
20095;SDS011;10207;50.942;6.900;2023-11-19T12:27:43;14.02;;;2.22;;
20095;SDS011;10207;50.942;6.900;2023-11-19T12:30:09;15.18;;;3.33;;
20095;SDS011;10207;50.942;6.900;2023-11-19T12:32:42;17.67;;;2.92;;
20095;SDS011;10207;50.942;6.900;2023-11-19T12:35:08;10.50;;;2.20;;
20095;SDS011;10207;50.942;6.900;2023-11-19T12:37:43;12.18;;;2.88;;
20095;SDS011;10207;50.942;6.900;2023-11-19T12:40:27;12.02;;;2.00;;
20095;SDS011;10207;50.942;6.900;2023-11-19T12:42:54;11.75;;;2.10;;
20095;SDS011;10207;50.942;6.900;2023-11-19T12:45:21;12.57;;;2.63;;
20095;SDS011;10207;50.942;6.900;2023-11-19T12:47:49;12.18;;;2.60;;
20095;SDS011;10207;50.942;6.900;2023-11-19T12:50:15;10.48;;;2.03;;
20095;SDS011;10207;50.942;6.900;2023-11-19T12:52:43;12.25;;;2.45;;
20095;SDS011;10207;50.942;6.900;2023-11-19T12:55:27;12.18;;;2.17;;
20095;SDS011;10207;50.942;6.900;2023-11-19T12:57:54;12.70;;;2.22;;
20095;SDS011;10207;50.942;6.900;2023-11-19T13:00:21;8.88;;;1.75;;
20095;SDS011;10207;50.942;6.900;2023-11-19T13:02:48;13.20;;;2.83;;
20095;SDS011;10207;50.942;6.900;2023-11-19T13:05:23;16.70;;;3.50;;
20095;SDS011;10207;50.942;6.900;2023-11-19T13:07:49;10.35;;;2.17;;
20095;SDS011;10207;50.942;6.900;2023-11-19T13:10:16;10.65;;;2.72;;
20095;SDS011;10207;50.942;6.900;2023-11-19T13:12:42;15.40;;;2.75;;
20095;SDS011;10207;50.942;6.900;2023-11-19T13:15:22;16.08;;;3.00;;
20095;SDS011;10207;50.942;6.900;2023-11-19T13:17:48;18.05;;;2.42;;
20095;SDS011;10207;50.942;6.900;2023-11-19T13:20:13;11.60;;;2.53;;
20095;SDS011;10207;50.942;6.900;2023-11-19T13:22:53;14.23;;;2.75;;
20095;SDS011;10207;50.942;6.900;2023-11-19T13:25:19;14.40;;;2.78;;
20095;SDS011;10207;50.942;6.900;2023-11-19T13:27:46;13.65;;;2.85;;
20095;SDS011;10207;50.942;6.900;2023-11-19T13:30:12;14.27;;;2.55;;
20095;SDS011;10207;50.942;6.900;2023-11-19T13:32:38;9.75;;;2.30;;
20095;SDS011;10207;50.942;6.900;2023-11-19T13:35:05;17.65;;;2.97;;
20095;SDS011;10207;50.942;6.900;2023-11-19T13:37:31;16.17;;;3.22;;
20095;SDS011;10207;50.942;6.900;2023-11-19T13:39:57;15.27;;;2.53;;
20095;SDS011;10207;50.942;6.900;2023-11-19T13:42:23;13.18;;;2.85;;
20095;SDS011;10207;50.942;6.900;2023-11-19T13:44:48;17.20;;;3.25;;
20095;SDS011;10207;50.942;6.900;2023-11-19T13:47:15;16.13;;;2.90;;
20095;SDS011;10207;50.942;6.900;2023-11-19T13:49:41;14.85;;;3.65;;
20095;SDS011;10207;50.942;6.900;2023-11-19T13:52:06;17.73;;;2.83;;
20095;SDS011;10207;50.942;6.900;2023-11-19T13:54:32;18.35;;;3.35;;
20095;SDS011;10207;50.942;6.900;2023-11-19T13:56:58;8.40;;;2.67;;
20095;SDS011;10207;50.942;6.900;2023-11-19T13:59:24;13.93;;;3.03;;
20095;SDS011;10207;50.942;6.900;2023-11-19T14:01:50;18.75;;;3.22;;
20095;SDS011;10207;50.942;6.900;2023-11-19T14:04:15;16.10;;;3.20;;
20095;SDS011;10207;50.942;6.900;2023-11-19T14:06:44;21.35;;;3.40;;
20095;SDS011;10207;50.942;6.900;2023-11-19T14:09:10;14.70;;;2.50;;
20095;SDS011;10207;50.942;6.900;2023-11-19T14:11:36;15.20;;;2.80;;
20095;SDS011;10207;50.942;6.900;2023-11-19T14:14:02;14.07;;;3.47;;
20095;SDS011;10207;50.942;6.900;2023-11-19T14:16:27;13.35;;;2.35;;
20095;SDS011;10207;50.942;6.900;2023-11-19T14:18:53;16.10;;;3.97;;
20095;SDS011;10207;50.942;6.900;2023-11-19T14:21:20;13.95;;;2.67;;
20095;SDS011;10207;50.942;6.900;2023-11-19T14:23:46;17.85;;;3.78;;
20095;SDS011;10207;50.942;6.900;2023-11-19T14:26:12;11.13;;;2.47;;
20095;SDS011;10207;50.942;6.900;2023-11-19T14:28:38;12.80;;;2.53;;
20095;SDS011;10207;50.942;6.900;2023-11-19T14:31:04;11.90;;;2.72;;
20095;SDS011;10207;50.942;6.900;2023-11-19T14:33:30;13.75;;;2.50;;
20095;SDS011;10207;50.942;6.900;2023-11-19T14:35:56;14.82;;;3.83;;
20095;SDS011;10207;50.942;6.900;2023-11-19T14:38:21;11.73;;;2.53;;
20095;SDS011;10207;50.942;6.900;2023-11-19T14:40:47;10.15;;;2.17;;
20095;SDS011;10207;50.942;6.900;2023-11-19T14:43:13;11.13;;;3.67;;
20095;SDS011;10207;50.942;6.900;2023-11-19T14:45:41;14.57;;;2.45;;
20095;SDS011;10207;50.942;6.900;2023-11-19T14:48:06;14.50;;;2.90;;
20095;SDS011;10207;50.942;6.900;2023-11-19T14:50:32;11.20;;;2.83;;
20095;SDS011;10207;50.942;6.900;2023-11-19T14:52:58;10.27;;;2.50;;
20095;SDS011;10207;50.942;6.900;2023-11-19T14:55:24;9.95;;;2.17;;
20095;SDS011;10207;50.942;6.900;2023-11-19T14:57:50;10.70;;;2.92;;